Airport View

Enter AWOS ICAO identifier for current METAR.

ex. KFNL

KBNW 111855Z AUTO RMK AO2 PNO PWINO

11 Dec 2019 19:04

Frequency: 120.925

Phone: 515-432-9042

Other Area AWOS: KAMW - KPRO - KEBS - KIKV

TAF KDSM 111730Z 1118/1218 03011KT P6SM FEW016 FM120200 13006KT P6SM SCT250 FM120500 13008KT P6SM BKN250 WS020/17035KT FM121100 18009G17KT P6SM OVC070 WS020/21040KT FM121400 21011G25KT P6SM OVC030